sensor_id;sensor_type;location;lat;lon;timestamp;pressure;altitude;pressure_sealevel;temperature;humidity
43878;BME280;29815;48.184;11.268;2023-04-28T00:00:32;95541.94;;;5.89;100.00
43878;BME280;29815;48.184;11.268;2023-04-28T00:03:01;95532.41;;;5.82;100.00
43878;BME280;29815;48.184;11.268;2023-04-28T00:05:31;95533.22;;;5.82;100.00
43878;BME280;29815;48.184;11.268;2023-04-28T00:08:03;95528.91;;;5.81;100.00
43878;BME280;29815;48.184;11.268;2023-04-28T00:10:33;95526.50;;;5.79;100.00
43878;BME280;29815;48.184;11.268;2023-04-28T00:13:02;95522.53;;;5.82;100.00
43878;BME280;29815;48.184;11.268;2023-04-28T00:15:32;95522.88;;;5.86;100.00
43878;BME280;29815;48.184;11.268;2023-04-28T00:18:02;95518.47;;;5.91;100.00
43878;BME280;29815;48.184;11.268;2023-04-28T00:20:31;95519.59;;;5.95;100.00
43878;BME280;29815;48.184;11.268;2023-04-28T00:23:02;95511.91;;;5.99;100.00
43878;BME280;29815;48.184;11.268;2023-04-28T00:25:32;95513.59;;;6.05;100.00
43878;BME280;29815;48.184;11.268;2023-04-28T00:28:02;95512.31;;;6.07;100.00
43878;BME280;29815;48.184;11.268;2023-04-28T00:30:32;95515.22;;;6.06;100.00
43878;BME280;29815;48.184;11.268;2023-04-28T00:33:01;95510.91;;;6.05;100.00
43878;BME280;29815;48.184;11.268;2023-04-28T00:35:31;95512.78;;;6.04;100.00
43878;BME280;29815;48.184;11.268;2023-04-28T00:38:02;95505.75;;;5.98;100.00
43878;BME280;29815;48.184;11.268;2023-04-28T00:40:32;95512.97;;;5.98;100.00
43878;BME280;29815;48.184;11.268;2023-04-28T00:43:03;95514.59;;;5.99;100.00
43878;BME280;29815;48.184;11.268;2023-04-28T00:45:33;95511.09;;;5.98;100.00
43878;BME280;29815;48.184;11.268;2023-04-28T00:48:03;95505.53;;;6.00;100.00
43878;BME280;29815;48.184;11.268;2023-04-28T00:50:33;95510.63;;;6.01;100.00
43878;BME280;29815;48.184;11.268;2023-04-28T00:53:04;95498.84;;;6.02;100.00
43878;BME280;29815;48.184;11.268;2023-04-28T00:55:34;95503.38;;;6.02;100.00
43878;BME280;29815;48.184;11.268;2023-04-28T00:58:04;95498.63;;;6.04;100.00
43878;BME280;29815;48.184;11.268;2023-04-28T01:00:35;95500.25;;;6.05;100.00
43878;BME280;29815;48.184;11.268;2023-04-28T01:03:04;95493.13;;;6.10;100.00
43878;BME280;29815;48.184;11.268;2023-04-28T01:05:35;95492.88;;;6.12;100.00
43878;BME280;29815;48.184;11.268;2023-04-28T01:08:07;95492.97;;;6.17;100.00
43878;BME280;29815;48.184;11.268;2023-04-28T01:10:43;95480.09;;;6.14;100.00
43878;BME280;29815;48.184;11.268;2023-04-28T01:13:25;95477.16;;;6.16;100.00
43878;BME280;29815;48.184;11.268;2023-04-28T01:16:04;95477.97;;;6.16;100.00
43878;BME280;29815;48.184;11.268;2023-04-28T01:18:35;95474.00;;;6.19;100.00
43878;BME280;29815;48.184;11.268;2023-04-28T01:21:05;95462.28;;;6.20;100.00
43878;BME280;29815;48.184;11.268;2023-04-28T01:23:36;95468.44;;;6.20;100.00
43878;BME280;29815;48.184;11.268;2023-04-28T01:26:08;95451.59;;;6.20;100.00
43878;BME280;29815;48.184;11.268;2023-04-28T01:28:37;95460.75;;;6.24;100.00
43878;BME280;29815;48.184;11.268;2023-04-28T01:31:07;95454.09;;;6.26;100.00
43878;BME280;29815;48.184;11.268;2023-04-28T01:33:36;95455.19;;;6.30;100.00
43878;BME280;29815;48.184;11.268;2023-04-28T01:36:07;95452.84;;;6.34;100.00
43878;BME280;29815;48.184;11.268;2023-04-28T01:38:37;95436.56;;;6.35;100.00
43878;BME280;29815;48.184;11.268;2023-04-28T01:41:08;95439.31;;;6.40;100.00
43878;BME280;29815;48.184;11.268;2023-04-28T01:43:38;95445.78;;;6.44;100.00
43878;BME280;29815;48.184;11.268;2023-04-28T01:46:07;95448.78;;;6.48;100.00
43878;BME280;29815;48.184;11.268;2023-04-28T01:48:37;95459.25;;;6.50;100.00
43878;BME280;29815;48.184;11.268;2023-04-28T01:51:06;95469.94;;;6.50;100.00
43878;BME280;29815;48.184;11.268;2023-04-28T01:53:38;95463.53;;;6.51;100.00
43878;BME280;29815;48.184;11.268;2023-04-28T01:56:09;95471.56;;;6.51;100.00
43878;BME280;29815;48.184;11.268;2023-04-28T01:58:39;95475.84;;;6.52;100.00
43878;BME280;29815;48.184;11.268;2023-04-28T02:01:09;95479.56;;;6.51;100.00
43878;BME280;29815;48.184;11.268;2023-04-28T02:03:39;95479.25;;;6.47;100.00
43878;BME280;29815;48.184;11.268;2023-04-28T02:06:09;95465.88;;;6.47;100.00
43878;BME280;29815;48.184;11.268;2023-04-28T02:08:38;95473.09;;;6.47;100.00
43878;BME280;29815;48.184;11.268;2023-04-28T02:11:09;95470.19;;;6.48;100.00
43878;BME280;29815;48.184;11.268;2023-04-28T02:13:39;95470.50;;;6.52;100.00
43878;BME280;29815;48.184;11.268;2023-04-28T02:16:08;95469.44;;;6.53;100.00
43878;BME280;29815;48.184;11.268;2023-04-28T02:18:38;95473.75;;;6.54;100.00
43878;BME280;29815;48.184;11.268;2023-04-28T02:21:08;95470.00;;;6.55;100.00
43878;BME280;29815;48.184;11.268;2023-04-28T02:23:39;95467.34;;;6.55;100.00
43878;BME280;29815;48.184;11.268;2023-04-28T02:26:10;95463.34;;;6.57;100.00
43878;BME280;29815;48.184;11.268;2023-04-28T02:28:39;95460.16;;;6.60;100.00
43878;BME280;29815;48.184;11.268;2023-04-28T02:31:10;95455.13;;;6.64;100.00
43878;BME280;29815;48.184;11.268;2023-04-28T02:33:41;95441.84;;;6.69;100.00
43878;BME280;29815;48.184;11.268;2023-04-28T02:36:10;95435.75;;;6.73;100.00
43878;BME280;29815;48.184;11.268;2023-04-28T02:38:40;95425.13;;;6.78;100.00
43878;BME280;29815;48.184;11.268;2023-04-28T02:41:12;95430.78;;;6.82;100.00
43878;BME280;29815;48.184;11.268;2023-04-28T02:43:43;95429.19;;;6.86;100.00
43878;BME280;29815;48.184;11.268;2023-04-28T02:46:12;95419.63;;;6.90;100.00
43878;BME280;29815;48.184;11.268;2023-04-28T02:48:42;95413.78;;;6.93;100.00
43878;BME280;29815;48.184;11.268;2023-04-28T02:51:12;95422.13;;;6.97;100.00
43878;BME280;29815;48.184;11.268;2023-04-28T02:53:42;95438.47;;;7.00;100.00
43878;BME280;29815;48.184;11.268;2023-04-28T02:56:13;95435.56;;;7.02;100.00
43878;BME280;29815;48.184;11.268;2023-04-28T02:58:42;95421.94;;;7.03;100.00
43878;BME280;29815;48.184;11.268;2023-04-28T03:01:12;95428.97;;;7.09;100.00
43878;BME280;29815;48.184;11.268;2023-04-28T03:03:41;95431.09;;;7.07;100.00
43878;BME280;29815;48.184;11.268;2023-04-28T03:06:11;95424.91;;;7.07;100.00
43878;BME280;29815;48.184;11.268;2023-04-28T03:08:41;95423.63;;;7.09;100.00
43878;BME280;29815;48.184;11.268;2023-04-28T03:11:10;95418.50;;;7.08;100.00
43878;BME280;29815;48.184;11.268;2023-04-28T03:13:42;95413.41;;;7.06;100.00
43878;BME280;29815;48.184;11.268;2023-04-28T03:16:11;95413.41;;;7.06;100.00
43878;BME280;29815;48.184;11.268;2023-04-28T03:18:41;95418.19;;;7.04;100.00
43878;BME280;29815;48.184;11.268;2023-04-28T03:21:11;95421.44;;;7.06;100.00
43878;BME280;29815;48.184;11.268;2023-04-28T03:23:40;95420.06;;;7.04;100.00
43878;BME280;29815;48.184;11.268;2023-04-28T03:26:10;95416.59;;;7.03;100.00
43878;BME280;29815;48.184;11.268;2023-04-28T03:28:41;95411.78;;;7.05;100.00
43878;BME280;29815;48.184;11.268;2023-04-28T03:31:11;95419.59;;;7.12;100.00
43878;BME280;29815;48.184;11.268;2023-04-28T03:33:41;95407.59;;;7.14;100.00
43878;BME280;29815;48.184;11.268;2023-04-28T03:36:12;95419.59;;;7.12;100.00
43878;BME280;29815;48.184;11.268;2023-04-28T03:38:42;95434.59;;;7.13;100.00
43878;BME280;29815;48.184;11.268;2023-04-28T03:41:12;95444.81;;;7.16;100.00
43878;BME280;29815;48.184;11.268;2023-04-28T03:44:09;95444.81;;;7.16;100.00
43878;BME280;29815;48.184;11.268;2023-04-28T03:46:46;95443.75;;;7.17;100.00
43878;BME280;29815;48.184;11.268;2023-04-28T03:49:16;95440.00;;;7.18;100.00
43878;BME280;29815;48.184;11.268;2023-04-28T03:51:46;95445.63;;;7.17;100.00
43878;BME280;29815;48.184;11.268;2023-04-28T03:54:17;95441.63;;;7.19;100.00
43878;BME280;29815;48.184;11.268;2023-04-28T03:56:46;95426.38;;;7.20;100.00
43878;BME280;29815;48.184;11.268;2023-04-28T03:59:17;95427.19;;;7.20;100.00
43878;BME280;29815;48.184;11.268;2023-04-28T04:01:47;95429.38;;;7.23;100.00
43878;BME280;29815;48.184;11.268;2023-04-28T04:04:16;95424.00;;;7.23;100.00
43878;BME280;29815;48.184;11.268;2023-04-28T04:06:47;95427.25;;;7.25;100.00
43878;BME280;29815;48.184;11.268;2023-04-28T04:09:16;95410.13;;;7.26;100.00
43878;BME280;29815;48.184;11.268;2023-04-28T04:11:46;95406.16;;;7.29;100.00
43878;BME280;29815;48.184;11.268;2023-04-28T04:14:17;95403.22;;;7.30;100.00
43878;BME280;29815;48.184;11.268;2023-04-28T04:16:46;95393.06;;;7.32;100.00
43878;BME280;29815;48.184;11.268;2023-04-28T04:19:16;95390.13;;;7.34;100.00
43878;BME280;29815;48.184;11.268;2023-04-28T04:21:50;95378.13;;;7.36;100.00
43878;BME280;29815;48.184;11.268;2023-04-28T04:24:19;95379.72;;;7.37;100.00
43878;BME280;29815;48.184;11.268;2023-04-28T04:26:49;95377.59;;;7.39;100.00
43878;BME280;29815;48.184;11.268;2023-04-28T04:29:30;95382.69;;;7.41;100.00
43878;BME280;29815;48.184;11.268;2023-04-28T04:32:03;95391.53;;;7.41;100.00
43878;BME280;29815;48.184;11.268;2023-04-28T04:34:33;95405.47;;;7.43;100.00
43878;BME280;29815;48.184;11.268;2023-04-28T04:37:03;95409.75;;;7.44;100.00
43878;BME280;29815;48.184;11.268;2023-04-28T04:39:34;95422.50;;;7.59;100.00
43878;BME280;29815;48.184;11.268;2023-04-28T04:42:04;95419.28;;;7.57;100.00
43878;BME280;29815;48.184;11.268;2023-04-28T04:45:19;95417.34;;;7.53;100.00
43878;BME280;29815;48.184;11.268;2023-04-28T04:47:50;95422.69;;;7.53;100.00
43878;BME280;29815;48.184;11.268;2023-04-28T04:50:20;95421.09;;;7.52;100.00
43878;BME280;29815;48.184;11.268;2023-04-28T04:52:50;95423.22;;;7.50;100.00
43878;BME280;29815;48.184;11.268;2023-04-28T04:55:21;95421.09;;;7.52;100.00
43878;BME280;29815;48.184;11.268;2023-04-28T04:57:52;95431.53;;;7.53;100.00
43878;BME280;29815;48.184;11.268;2023-04-28T05:01:01;95435.84;;;7.54;100.00
43878;BME280;29815;48.184;11.268;2023-04-28T05:03:31;95427.81;;;7.54;100.00
43878;BME280;29815;48.184;11.268;2023-04-28T05:06:01;95429.44;;;7.55;100.00
43878;BME280;29815;48.184;11.268;2023-04-28T05:08:46;95427.56;;;7.56;100.00
43878;BME280;29815;48.184;11.268;2023-04-28T05:11:16;95431.84;;;7.57;100.00
43878;BME280;29815;48.184;11.268;2023-04-28T05:13:46;95429.72;;;7.59;100.00
43878;BME280;29815;48.184;11.268;2023-04-28T05:16:17;95426.28;;;7.63;100.00
43878;BME280;29815;48.184;11.268;2023-04-28T05:18:56;95429.25;;;7.67;100.00
43878;BME280;29815;48.184;11.268;2023-04-28T05:21:25;95429.81;;;7.69;100.00
43878;BME280;29815;48.184;11.268;2023-04-28T05:23:55;95442.94;;;7.70;100.00
43878;BME280;29815;48.184;11.268;2023-04-28T05:26:25;95431.97;;;7.72;100.00
43878;BME280;29815;48.184;11.268;2023-04-28T05:28:58;95431.72;;;7.73;100.00
43878;BME280;29815;48.184;11.268;2023-04-28T05:31:29;95423.19;;;7.76;100.00
43878;BME280;29815;48.184;11.268;2023-04-28T05:33:59;95414.09;;;7.77;100.00
43878;BME280;29815;48.184;11.268;2023-04-28T05:36:28;95424.28;;;7.80;100.00
43878;BME280;29815;48.184;11.268;2023-04-28T05:38:59;95430.47;;;7.81;100.00
43878;BME280;29815;48.184;11.268;2023-04-28T05:41:28;95436.94;;;7.85;100.00
43878;BME280;29815;48.184;11.268;2023-04-28T05:43:58;95446.34;;;7.88;100.00
43878;BME280;29815;48.184;11.268;2023-04-28T05:46:29;95442.59;;;7.89;100.00
43878;BME280;29815;48.184;11.268;2023-04-28T05:49:00;95439.09;;;7.88;100.00
43878;BME280;29815;48.184;11.268;2023-04-28T05:51:34;95435.34;;;7.89;100.00
43878;BME280;29815;48.184;11.268;2023-04-28T05:54:03;95432.69;;;7.89;100.00
43878;BME280;29815;48.184;11.268;2023-04-28T05:56:38;95426.00;;;7.92;100.00
43878;BME280;29815;48.184;11.268;2023-04-28T05:59:09;95421.97;;;7.94;100.00
43878;BME280;29815;48.184;11.268;2023-04-28T06:01:39;95417.16;;;7.96;100.00
43878;BME280;29815;48.184;11.268;2023-04-28T06:04:09;95422.28;;;7.98;100.00
43878;BME280;29815;48.184;11.268;2023-04-28T06:06:39;95426.06;;;8.02;100.00
43878;BME280;29815;48.184;11.268;2023-04-28T06:09:08;95414.31;;;8.08;100.00
43878;BME280;29815;48.184;11.268;2023-04-28T06:11:38;95414.38;;;8.13;100.00
43878;BME280;29815;48.184;11.268;2023-04-28T06:14:07;95411.19;;;8.21;100.00
43878;BME280;29815;48.184;11.268;2023-04-28T06:16:38;95414.19;;;8.30;100.00
43878;BME280;29815;48.184;11.268;2023-04-28T06:19:08;95405.72;;;8.38;100.00
43878;BME280;29815;48.184;11.268;2023-04-28T06:21:38;95412.22;;;8.47;100.00
43878;BME280;29815;48.184;11.268;2023-04-28T06:24:08;95397.75;;;8.58;100.00
43878;BME280;29815;48.184;11.268;2023-04-28T06:26:39;95394.91;;;8.75;100.00
43878;BME280;29815;48.184;11.268;2023-04-28T06:29:09;95381.78;;;8.89;100.00
43878;BME280;29815;48.184;11.268;2023-04-28T06:31:40;95388.00;;;9.04;100.00
43878;BME280;29815;48.184;11.268;2023-04-28T06:34:10;95393.19;;;9.21;100.00
43878;BME280;29815;48.184;11.268;2023-04-28T06:36:40;95396.94;;;9.35;100.00
43878;BME280;29815;48.184;11.268;2023-04-28T06:39:10;95392.16;;;9.47;100.00
43878;BME280;29815;48.184;11.268;2023-04-28T06:41:40;95391.91;;;9.69;100.00
43878;BME280;29815;48.184;11.268;2023-04-28T06:44:11;95379.25;;;9.90;100.00
43878;BME280;29815;48.184;11.268;2023-04-28T06:46:42;95372.00;;;10.01;100.00
43878;BME280;29815;48.184;11.268;2023-04-28T06:49:11;95375.50;;;10.11;100.00
43878;BME280;29815;48.184;11.268;2023-04-28T06:51:43;95367.41;;;10.37;100.00
43878;BME280;29815;48.184;11.268;2023-04-28T06:54:13;95370.88;;;10.42;100.00
43878;BME280;29815;48.184;11.268;2023-04-28T06:56:44;95363.59;;;10.53;100.00
43878;BME280;29815;48.184;11.268;2023-04-28T06:59:13;95360.88;;;10.63;100.00
43878;BME280;29815;48.184;11.268;2023-04-28T07:01:44;95368.63;;;10.75;100.00
43878;BME280;29815;48.184;11.268;2023-04-28T07:04:14;95359.72;;;10.84;100.00
43878;BME280;29815;48.184;11.268;2023-04-28T07:06:44;95369.94;;;10.88;100.00
43878;BME280;29815;48.184;11.268;2023-04-28T07:09:14;95367.44;;;11.01;100.00
43878;BME280;29815;48.184;11.268;2023-04-28T07:11:44;95360.16;;;11.02;100.00
43878;BME280;29815;48.184;11.268;2023-04-28T07:14:14;95359.06;;;11.08;100.00
43878;BME280;29815;48.184;11.268;2023-04-28T07:16:45;95360.13;;;11.12;100.00
43878;BME280;29815;48.184;11.268;2023-04-28T07:19:15;95358.50;;;11.16;100.00
43878;BME280;29815;48.184;11.268;2023-04-28T07:21:45;95356.00;;;11.25;100.00
43878;BME280;29815;48.184;11.268;2023-04-28T07:24:14;95352.22;;;11.26;100.00
43878;BME280;29815;48.184;11.268;2023-04-28T07:26:44;95352.75;;;11.28;100.00
43878;BME280;29815;48.184;11.268;2023-04-28T07:29:14;95348.44;;;11.27;100.00
43878;BME280;29815;48.184;11.268;2023-04-28T07:31:45;95354.63;;;11.27;100.00
43878;BME280;29815;48.184;11.268;2023-04-28T07:34:15;95368.91;;;11.33;100.00
43878;BME280;29815;48.184;11.268;2023-04-28T07:36:45;95371.59;;;11.33;100.00
43878;BME280;29815;48.184;11.268;2023-04-28T07:39:15;95371.34;;;11.29;100.00
43878;BME280;29815;48.184;11.268;2023-04-28T07:41:44;95373.78;;;11.26;100.00
43878;BME280;29815;48.184;11.268;2023-04-28T07:44:14;95375.72;;;11.20;100.00
43878;BME280;29815;48.184;11.268;2023-04-28T07:46:45;95379.75;;;11.17;100.00
43878;BME280;29815;48.184;11.268;2023-04-28T07:49:17;95387.03;;;11.17;100.00
43878;BME280;29815;48.184;11.268;2023-04-28T07:51:46;95385.16;;;11.17;100.00
43878;BME280;29815;48.184;11.268;2023-04-28T07:54:16;95384.88;;;11.19;100.00
43878;BME280;29815;48.184;11.268;2023-04-28T07:56:46;95382.47;;;11.12;100.00
43878;BME280;29815;48.184;11.268;2023-04-28T07:59:16;95380.88;;;11.11;100.00
43878;BME280;29815;48.184;11.268;2023-04-28T08:01:47;95369.06;;;11.02;100.00
43878;BME280;29815;48.184;11.268;2023-04-28T11:49:04;95305.34;;;11.66;100.00
43878;BME280;29815;48.184;11.268;2023-04-28T11:51:36;95316.63;;;11.68;100.00
43878;BME280;29815;48.184;11.268;2023-04-28T11:54:06;95320.69;;;11.65;100.00
43878;BME280;29815;48.184;11.268;2023-04-28T11:56:39;95315.00;;;11.72;100.00
43878;BME280;29815;48.184;11.268;2023-04-28T11:59:11;95294.72;;;11.79;100.00
43878;BME280;29815;48.184;11.268;2023-04-28T12:01:46;95304.63;;;11.89;100.00
43878;BME280;29815;48.184;11.268;2023-04-28T12:04:29;95300.50;;;11.97;100.00
43878;BME280;29815;48.184;11.268;2023-04-28T12:07:04;95300.97;;;12.04;100.00
43878;BME280;29815;48.184;11.268;2023-04-28T12:09:38;95304.16;;;12.06;100.00
43878;BME280;29815;48.184;11.268;2023-04-28T12:12:12;95304.41;;;12.09;100.00
43878;BME280;29815;48.184;11.268;2023-04-28T12:14:56;95306.16;;;12.24;100.00
43878;BME280;29815;48.184;11.268;2023-04-28T12:17:28;95302.78;;;12.37;100.00
43878;BME280;29815;48.184;11.268;2023-04-28T12:20:01;95303.47;;;12.48;100.00
43878;BME280;29815;48.184;11.268;2023-04-28T12:22:43;95310.28;;;12.64;100.00
43878;BME280;29815;48.184;11.268;2023-04-28T12:25:15;95307.75;;;12.73;100.00
43878;BME280;29815;48.184;11.268;2023-04-28T12:27:59;95310.34;;;12.83;100.00
43878;BME280;29815;48.184;11.268;2023-04-28T12:30:32;95312.09;;;12.93;100.00
43878;BME280;29815;48.184;11.268;2023-04-28T12:33:02;95321.69;;;13.04;100.00
43878;BME280;29815;48.184;11.268;2023-04-28T12:35:33;95317.88;;;13.05;100.00
43878;BME280;29815;48.184;11.268;2023-04-28T12:38:03;95322.72;;;13.08;100.00
43878;BME280;29815;48.184;11.268;2023-04-28T12:40:32;95328.63;;;13.10;100.00
43878;BME280;29815;48.184;11.268;2023-04-28T12:43:02;95317.97;;;13.18;100.00
43878;BME280;29815;48.184;11.268;2023-04-28T12:45:32;95330.28;;;13.30;100.00
43878;BME280;29815;48.184;11.268;2023-04-28T12:48:03;95316.22;;;13.46;100.00
43878;BME280;29815;48.184;11.268;2023-04-28T12:50:34;95317.75;;;13.52;100.00
43878;BME280;29815;48.184;11.268;2023-04-28T12:53:03;95319.53;;;13.62;100.00
43878;BME280;29815;48.184;11.268;2023-04-28T12:55:33;95319.78;;;13.79;100.00
43878;BME280;29815;48.184;11.268;2023-04-28T12:58:02;95310.06;;;13.78;100.00
43878;BME280;29815;48.184;11.268;2023-04-28T13:00:32;95316.34;;;13.74;100.00
43878;BME280;29815;48.184;11.268;2023-04-28T13:03:02;95313.00;;;13.63;100.00
43878;BME280;29815;48.184;11.268;2023-04-28T13:05:34;95308.91;;;13.66;100.00
43878;BME280;29815;48.184;11.268;2023-04-28T13:08:04;95320.09;;;13.59;100.00
43878;BME280;29815;48.184;11.268;2023-04-28T13:10:34;95317.69;;;13.58;100.00
43878;BME280;29815;48.184;11.268;2023-04-28T13:13:03;95312.94;;;13.49;100.00
43878;BME280;29815;48.184;11.268;2023-04-28T13:15:33;95318.78;;;13.57;100.00
43878;BME280;29815;48.184;11.268;2023-04-28T13:18:06;95299.63;;;13.53;100.00
43878;BME280;29815;48.184;11.268;2023-04-28T13:20:37;95307.31;;;13.65;100.00
43878;BME280;29815;48.184;11.268;2023-04-28T13:23:06;95303.50;;;13.66;100.00
43878;BME280;29815;48.184;11.268;2023-04-28T13:25:36;95298.78;;;13.71;100.00
43878;BME280;29815;48.184;11.268;2023-04-28T13:28:05;95293.00;;;13.64;100.00
43878;BME280;29815;48.184;11.268;2023-04-28T13:30:35;95298.41;;;13.64;100.00
43878;BME280;29815;48.184;11.268;2023-04-28T13:33:04;95301.63;;;13.80;100.00
43878;BME280;29815;48.184;11.268;2023-04-28T13:35:36;95304.59;;;13.97;100.00
43878;BME280;29815;48.184;11.268;2023-04-28T13:38:06;95299.50;;;14.09;100.00
43878;BME280;29815;48.184;11.268;2023-04-28T13:40:35;95303.94;;;14.19;100.00
43878;BME280;29815;48.184;11.268;2023-04-28T13:43:05;95292.53;;;14.22;100.00
43878;BME280;29815;48.184;11.268;2023-04-28T13:45:34;95296.22;;;14.26;100.00
43878;BME280;29815;48.184;11.268;2023-04-28T13:48:04;95291.72;;;14.35;100.00
43878;BME280;29815;48.184;11.268;2023-04-28T13:50:35;95294.28;;;14.45;100.00
43878;BME280;29815;48.184;11.268;2023-04-28T13:53:06;95290.28;;;14.43;100.00
43878;BME280;29815;48.184;11.268;2023-04-28T13:55:36;95290.19;;;14.48;100.00
43878;BME280;29815;48.184;11.268;2023-04-28T13:58:06;95282.72;;;14.53;100.00
43878;BME280;29815;48.184;11.268;2023-04-28T14:00:35;95286.84;;;14.51;100.00
43878;BME280;29815;48.184;11.268;2023-04-28T14:03:06;95286.66;;;14.47;100.00
43878;BME280;29815;48.184;11.268;2023-04-28T14:05:38;95289.97;;;14.44;100.00
43878;BME280;29815;48.184;11.268;2023-04-28T14:08:16;95283.44;;;14.45;100.00
43878;BME280;29815;48.184;11.268;2023-04-28T14:10:48;95278.34;;;14.44;100.00
43878;BME280;29815;48.184;11.268;2023-04-28T14:13:18;95283.00;;;14.38;100.00
43878;BME280;29815;48.184;11.268;2023-04-28T14:15:47;95283.59;;;14.35;100.00
43878;BME280;29815;48.184;11.268;2023-04-28T14:18:27;95285.09;;;14.28;100.00
43878;BME280;29815;48.184;11.268;2023-04-28T14:20:58;95282.59;;;14.31;100.00
43878;BME280;29815;48.184;11.268;2023-04-28T14:23:29;95290.94;;;14.35;100.00
43878;BME280;29815;48.184;11.268;2023-04-28T14:25:58;95282.59;;;14.31;100.00
43878;BME280;29815;48.184;11.268;2023-04-28T14:28:28;95286.41;;;14.16;100.00
43878;BME280;29815;48.184;11.268;2023-04-28T14:31:00;95283.69;;;14.16;100.00
43878;BME280;29815;48.184;11.268;2023-04-28T14:33:33;95272.16;;;14.11;100.00
43878;BME280;29815;48.184;11.268;2023-04-28T14:36:04;95271.16;;;14.07;100.00
43878;BME280;29815;48.184;11.268;2023-04-28T14:38:34;95268.00;;;14.00;100.00
43878;BME280;29815;48.184;11.268;2023-04-28T14:41:06;95265.22;;;14.05;100.00
43878;BME280;29815;48.184;11.268;2023-04-28T14:43:36;95264.50;;;13.99;100.00
43878;BME280;29815;48.184;11.268;2023-04-28T14:46:06;95265.91;;;13.97;100.00
43878;BME280;29815;48.184;11.268;2023-04-28T14:48:35;95259.41;;;13.98;100.00
43878;BME280;29815;48.184;11.268;2023-04-28T14:51:06;95258.81;;;14.01;100.00
43878;BME280;29815;48.184;11.268;2023-04-28T14:53:36;95255.00;;;14.02;100.00
43878;BME280;29815;48.184;11.268;2023-04-28T14:56:07;95259.91;;;14.00;100.00
43878;BME280;29815;48.184;11.268;2023-04-28T14:58:48;95265.31;;;14.00;100.00
43878;BME280;29815;48.184;11.268;2023-04-28T15:01:18;95259.69;;;13.96;100.00
43878;BME280;29815;48.184;11.268;2023-04-28T15:03:47;95263.31;;;13.92;100.00
43878;BME280;29815;48.184;11.268;2023-04-28T15:06:19;95259.59;;;13.87;100.00
43878;BME280;29815;48.184;11.268;2023-04-28T15:08:49;95270.19;;;13.84;100.00
43878;BME280;29815;48.184;11.268;2023-04-28T15:11:18;95261.50;;;13.87;100.00
43878;BME280;29815;48.184;11.268;2023-04-28T15:13:48;95261.28;;;13.83;100.00
43878;BME280;29815;48.184;11.268;2023-04-28T15:16:17;95270.88;;;13.76;100.00
43878;BME280;29815;48.184;11.268;2023-04-28T15:18:47;95270.38;;;13.74;100.00
43878;BME280;29815;48.184;11.268;2023-04-28T15:21:18;95267.16;;;13.72;100.00
43878;BME280;29815;48.184;11.268;2023-04-28T15:23:47;95280.16;;;13.70;100.00
43878;BME280;29815;48.184;11.268;2023-04-28T15:26:17;95280.16;;;13.70;100.00
43878;BME280;29815;48.184;11.268;2023-04-28T15:28:46;95274.56;;;13.66;100.00
43878;BME280;29815;48.184;11.268;2023-04-28T15:31:16;95261.41;;;13.60;100.00
43878;BME280;29815;48.184;11.268;2023-04-28T15:33:45;95264.13;;;13.60;100.00
43878;BME280;29815;48.184;11.268;2023-04-28T15:36:15;95262.50;;;13.59;100.00
43878;BME280;29815;48.184;11.268;2023-04-28T15:38:48;95262.31;;;13.55;100.00
43878;BME280;29815;48.184;11.268;2023-04-28T15:41:19;95251.78;;;13.53;100.00
43878;BME280;29815;48.184;11.268;2023-04-28T15:43:48;95250.16;;;13.52;100.00
43878;BME280;29815;48.184;11.268;2023-04-28T15:46:18;95250.91;;;13.58;100.00
43878;BME280;29815;48.184;11.268;2023-04-28T15:48:48;95262.81;;;13.57;100.00
43878;BME280;29815;48.184;11.268;2023-04-28T15:51:18;95256.38;;;13.53;100.00
43878;BME280;29815;48.184;11.268;2023-04-28T15:53:49;95250.38;;;13.56;100.00
43878;BME280;29815;48.184;11.268;2023-04-28T15:56:18;95250.38;;;13.56;100.00
43878;BME280;29815;48.184;11.268;2023-04-28T15:58:50;95249.59;;;13.55;100.00
43878;BME280;29815;48.184;11.268;2023-04-28T16:01:19;95244.19;;;13.55;100.00
43878;BME280;29815;48.184;11.268;2023-04-28T16:03:49;95234.97;;;13.57;100.00
43878;BME280;29815;48.184;11.268;2023-04-28T16:06:19;95232.78;;;13.59;100.00
43878;BME280;29815;48.184;11.268;2023-04-28T16:08:50;95232.56;;;13.55;100.00
43878;BME280;29815;48.184;11.268;2023-04-28T16:11:20;95238.78;;;13.55;100.00
43878;BME280;29815;48.184;11.268;2023-04-28T16:13:50;95239.94;;;13.49;100.00
43878;BME280;29815;48.184;11.268;2023-04-28T16:16:21;95235.63;;;13.48;100.00
43878;BME280;29815;48.184;11.268;2023-04-28T16:18:52;95231.03;;;13.49;100.00
43878;BME280;29815;48.184;11.268;2023-04-28T16:21:23;95235.19;;;13.41;100.00
43878;BME280;29815;48.184;11.268;2023-04-28T16:23:54;95232.81;;;13.40;100.00
43878;BME280;29815;48.184;11.268;2023-04-28T16:26:24;95235.59;;;13.35;100.00
43878;BME280;29815;48.184;11.268;2023-04-28T16:28:54;95234.28;;;13.32;100.00
43878;BME280;29815;48.184;11.268;2023-04-28T16:31:23;95232.16;;;13.29;100.00
43878;BME280;29815;48.184;11.268;2023-04-28T16:33:53;95236.25;;;13.27;100.00
43878;BME280;29815;48.184;11.268;2023-04-28T16:36:23;95228.75;;;13.24;100.00
43878;BME280;29815;48.184;11.268;2023-04-28T16:38:54;95224.44;;;13.23;100.00
43878;BME280;29815;48.184;11.268;2023-04-28T16:41:24;95243.06;;;13.24;100.00
43878;BME280;29815;48.184;11.268;2023-04-28T16:43:53;95244.22;;;13.18;100.00
43878;BME280;29815;48.184;11.268;2023-04-28T16:46:23;95245.38;;;13.12;100.00
43878;BME280;29815;48.184;11.268;2023-04-28T16:48:52;95242.09;;;12.96;100.00